Terminal Aerodrome Forecast
Issued by NWS Greer, SC

Home | Current Version | Previous Version | Text Only | Print | Product List | Glossary On
Versions: 1 2 3 4 5 6 7 8 9 10 11 12 13 14
051
FTUS42 KGSP 231235 AAB
TAFGSP
TAF AMD
KGSP 231235Z 2313/2412 VRB03KT P6SM FEW200
      TEMPO 2313/2314 5SM BR
     FM231700 06005KT P6SM FEW045
     FM240000 07004KT P6SM FEW250=

USA.gov is the U.S. government's official web portal to all federal, state and local government web resources and services.